createdAt,value
2022-08-03T00:01:49.887Z,16.40
2022-08-03T00:06:52.264Z,16.38
2022-08-03T00:11:54.662Z,16.35
2022-08-03T00:16:57.676Z,16.32
2022-08-03T00:22:00.314Z,16.29
2022-08-03T00:27:03.145Z,16.28
2022-08-03T00:32:05.863Z,16.27
2022-08-03T00:37:08.778Z,16.23
2022-08-03T00:42:11.529Z,16.20
2022-08-03T00:47:14.022Z,16.15
2022-08-03T00:52:17.178Z,16.11
2022-08-03T00:57:19.596Z,16.05
2022-08-03T01:02:22.125Z,16.00
2022-08-03T01:07:40.391Z,15.99
2022-08-03T01:12:52.616Z,15.99
2022-08-03T01:17:59.562Z,15.97
2022-08-03T01:23:33.902Z,15.98
2022-08-03T01:28:58.217Z,15.98
2022-08-03T01:34:05.590Z,15.97
2022-08-03T01:39:12.502Z,15.92
2022-08-03T01:44:29.417Z,15.86
2022-08-03T01:49:38.393Z,15.81
2022-08-03T01:54:45.209Z,15.78
2022-08-03T01:59:50.579Z,15.72
2022-08-03T02:04:54.202Z,15.68
2022-08-03T02:09:58.640Z,15.68
2022-08-03T02:15:02.283Z,15.69
2022-08-03T02:30:46.178Z,15.83
2022-08-03T02:35:55.171Z,15.88
2022-08-03T02:40:58.695Z,15.94
2022-08-03T02:46:01.272Z,15.97
2022-08-03T02:51:05.062Z,16.01
2022-08-03T03:06:39.128Z,16.08
2022-08-03T03:11:44.047Z,16.06
2022-08-03T03:16:47.904Z,16.04
2022-08-03T03:21:55.653Z,16.02
2022-08-03T03:26:58.690Z,16.06
2022-08-03T03:32:02.608Z,16.12
2022-08-03T03:37:05.923Z,16.21
2022-08-03T03:42:08.489Z,16.31
2022-08-03T03:54:08.708Z,16.54
2022-08-03T03:59:14.569Z,16.70
2022-08-03T04:04:39.834Z,16.80
2022-08-03T04:10:00.997Z,16.90
2022-08-03T04:15:22.593Z,17.02
2022-08-03T04:20:33.811Z,17.17
2022-08-03T04:25:41.701Z,17.24
2022-08-03T04:30:56.767Z,17.32
2022-08-03T04:36:04.087Z,17.43
2022-08-03T04:41:13.033Z,17.55
2022-08-03T04:46:20.361Z,17.67
2022-08-03T04:51:26.764Z,17.82
2022-08-03T04:56:29.304Z,17.92
2022-08-03T05:12:40.566Z,18.47
2022-08-03T05:17:45.655Z,18.68
2022-08-03T05:22:48.030Z,18.92
2022-08-03T05:27:52.188Z,19.12
2022-08-03T06:24:25.976Z,24.78
2022-08-03T06:47:17.943Z,25.21
2022-08-03T06:52:38.156Z,25.16
2022-08-03T06:57:41.078Z,25.22
2022-08-03T07:02:43.513Z,25.37
2022-08-03T07:07:46.178Z,25.55
2022-08-03T07:12:55.967Z,25.64
2022-08-03T07:18:14.841Z,25.66
2022-08-03T07:23:19.306Z,25.60
2022-08-03T07:28:22.074Z,25.72
2022-08-03T07:33:24.621Z,26.06
2022-08-03T07:38:27.377Z,26.25
2022-08-03T07:43:30.057Z,26.58
2022-08-03T07:48:32.570Z,27.22
2022-08-03T07:53:37.824Z,28.05
2022-08-03T07:58:49.713Z,29.04
2022-08-03T08:03:53.710Z,29.61
2022-08-03T08:09:01.575Z,30.30
2022-08-03T08:14:05.283Z,30.85
2022-08-03T08:19:07.681Z,31.00
2022-08-03T08:24:13.410Z,30.86
2022-08-03T08:29:23.258Z,30.72
2022-08-03T08:34:25.785Z,30.61
2022-08-03T08:39:28.173Z,30.69
2022-08-03T08:44:30.673Z,30.67
2022-08-03T08:49:36.328Z,30.50
2022-08-03T08:54:41.468Z,30.38
2022-08-03T08:59:48.395Z,30.44
2022-08-03T09:04:53.176Z,30.47
2022-08-03T09:10:11.672Z,30.48
2022-08-03T09:22:28.252Z,30.32
2022-08-03T09:27:43.457Z,30.08
2022-08-03T09:32:47.104Z,29.92
2022-08-03T09:38:13.813Z,30.03
2022-08-03T09:43:17.033Z,30.53
2022-08-03T09:48:34.567Z,30.95
2022-08-03T09:53:57.258Z,31.62
2022-08-03T09:59:02.333Z,32.05
2022-08-03T10:04:05.371Z,32.17
2022-08-03T10:09:16.526Z,32.29
2022-08-03T10:14:19.599Z,32.38
2022-08-03T10:19:22.523Z,32.36
2022-08-03T10:24:28.120Z,32.28
2022-08-03T10:29:36.887Z,32.22
2022-08-03T10:34:44.693Z,32.38
2022-08-03T10:39:54.886Z,32.61
2022-08-03T10:45:22.458Z,32.56
2022-08-03T10:50:25.891Z,32.40
2022-08-03T10:56:01.710Z,32.24
2022-08-03T11:01:09.695Z,32.39
2022-08-03T11:06:24.475Z,32.85
2022-08-03T11:11:28.549Z,32.86
2022-08-03T11:16:49.602Z,32.98
2022-08-03T11:21:53.804Z,33.34
2022-08-03T11:27:20.195Z,33.72
2022-08-03T11:32:46.442Z,33.91
2022-08-03T11:38:01.998Z,33.87
2022-08-03T11:43:31.233Z,33.61
2022-08-03T11:48:35.259Z,33.35
2022-08-03T11:53:41.788Z,33.20
2022-08-03T11:59:01.191Z,33.10
2022-08-03T12:04:11.697Z,33.07
2022-08-03T12:09:17.348Z,33.18
2022-08-03T12:14:48.492Z,33.38
2022-08-03T12:19:46.381Z,33.53
2022-08-03T12:25:39.247Z,33.41
2022-08-03T12:30:43.507Z,33.53
2022-08-03T12:36:06.183Z,33.77
2022-08-03T12:41:16.603Z,33.98
2022-08-03T12:46:19.629Z,33.98
2022-08-03T12:51:21.997Z,33.66
2022-08-03T12:56:25.112Z,33.22
2022-08-03T13:01:36.644Z,32.88
2022-08-03T13:06:39.140Z,33.19
2022-08-03T13:11:57.759Z,33.80
2022-08-03T13:17:06.127Z,34.27
2022-08-03T13:22:17.176Z,34.52
2022-08-03T13:28:04.079Z,34.61
2022-08-03T13:32:42.540Z,35.30
2022-08-03T13:37:47.818Z,35.82
2022-08-03T13:42:51.551Z,36.14
2022-08-03T13:47:54.609Z,36.09
2022-08-03T13:52:57.766Z,36.74
2022-08-03T13:58:04.030Z,37.21
2022-08-03T14:03:15.455Z,36.59
2022-08-03T14:08:18.131Z,37.58
2022-08-03T14:13:20.560Z,38.26
2022-08-03T14:19:33.344Z,38.71
2022-08-03T14:24:55.313Z,39.31
2022-08-03T14:29:59.806Z,40.10
2022-08-03T14:35:02.516Z,40.87
2022-08-03T14:40:05.918Z,40.78
2022-08-03T14:45:09.594Z,41.39
2022-08-03T14:50:37.685Z,42.25
2022-08-03T14:55:49.743Z,42.76
2022-08-03T15:00:55.360Z,42.92
2022-08-03T15:05:57.810Z,41.95
2022-08-03T15:11:00.206Z,40.44
2022-08-03T15:16:02.678Z,40.25
2022-08-03T15:21:06.577Z,41.10
2022-08-03T15:26:32.687Z,42.15
2022-08-03T15:31:38.330Z,42.52
2022-08-03T15:36:40.768Z,43.31
2022-08-03T15:41:43.192Z,44.11
2022-08-03T15:46:46.101Z,45.02
2022-08-03T15:51:48.677Z,45.70
2022-08-03T15:56:51.141Z,46.30
2022-08-03T16:01:56.473Z,46.65
2022-08-03T16:06:58.985Z,46.76
2022-08-03T16:12:01.374Z,46.71
2022-08-03T16:17:04.527Z,46.56
2022-08-03T16:22:08.037Z,46.48
2022-08-03T16:27:17.316Z,44.99
2022-08-03T16:32:34.071Z,44.50
2022-08-03T16:37:38.667Z,42.05
2022-08-03T16:42:41.773Z,39.94
2022-08-03T16:47:44.253Z,38.11
2022-08-03T16:52:48.427Z,36.82
2022-08-03T16:57:59.818Z,35.62
2022-08-03T17:03:19.014Z,34.61
2022-08-03T17:08:26.757Z,33.74
2022-08-03T17:13:39.052Z,33.65
2022-08-03T17:18:52.588Z,33.02
2022-08-03T17:24:03.137Z,32.33
2022-08-03T17:35:47.127Z,30.85
2022-08-03T17:40:56.262Z,30.32
2022-08-03T17:45:58.845Z,29.77
2022-08-03T17:51:06.703Z,29.37
2022-08-03T17:56:44.941Z,28.87
2022-08-03T18:02:30.496Z,28.21
2022-08-03T18:07:41.352Z,27.54
2022-08-03T18:12:53.104Z,27.03
2022-08-03T18:18:10.861Z,26.58
2022-08-03T18:23:25.154Z,26.17
2022-08-03T18:28:38.395Z,25.71
2022-08-03T18:34:16.919Z,25.33
2022-08-03T18:39:05.185Z,24.95
2022-08-03T18:44:53.358Z,24.61
2022-08-03T18:49:41.805Z,24.24
2022-08-03T18:55:04.485Z,23.89
2022-08-03T19:00:17.105Z,23.57
2022-08-03T19:05:53.709Z,23.24
2022-08-03T19:10:57.735Z,22.91
2022-08-03T19:16:04.589Z,22.66
2022-08-03T19:26:36.858Z,22.14
2022-08-03T19:31:39.919Z,21.92
2022-08-03T19:37:02.638Z,21.67
2022-08-03T19:42:20.114Z,21.46
2022-08-03T19:47:29.709Z,21.22
2022-08-03T19:52:35.374Z,21.04
2022-08-03T19:57:43.940Z,20.86
2022-08-03T20:02:50.902Z,20.67
2022-08-03T20:07:54.213Z,20.52
2022-08-03T20:12:57.425Z,20.35
2022-08-03T20:18:00.203Z,20.17
2022-08-03T20:23:13.708Z,20.02
2022-08-03T20:28:28.977Z,19.88
2022-08-03T20:33:46.195Z,19.75
2022-08-03T20:38:52.133Z,19.64
2022-08-03T20:43:59.071Z,19.46
2022-08-03T20:49:03.816Z,19.32
2022-08-03T20:59:38.464Z,19.18
2022-08-03T21:04:50.190Z,19.10
2022-08-03T21:09:57.055Z,19.02
2022-08-03T21:13:02.096Z,22.41
2022-08-03T21:13:07.723Z,19.24
2022-08-03T21:15:03.422Z,18.93
2022-08-03T21:20:08.221Z,18.83
2022-08-03T21:25:15.023Z,18.76
2022-08-03T21:30:18.871Z,18.70
2022-08-03T21:35:23.042Z,18.62
2022-08-03T21:40:25.762Z,18.54
2022-08-03T21:45:28.168Z,18.41
2022-08-03T21:50:34.792Z,18.29
2022-08-03T21:55:39.878Z,18.23
2022-08-03T22:00:43.149Z,18.20
2022-08-03T22:05:45.758Z,18.18
2022-08-03T22:10:51.145Z,18.12
2022-08-03T22:15:53.779Z,18.04
2022-08-03T22:20:57.360Z,17.97
2022-08-03T22:26:04.081Z,17.91
2022-08-03T22:31:30.679Z,17.81
2022-08-03T22:37:39.828Z,17.65
2022-08-03T22:42:52.437Z,17.51
2022-08-03T22:47:56.088Z,17.43
2022-08-03T22:52:58.482Z,17.31
2022-08-03T22:58:00.879Z,17.21
2022-08-03T23:03:06.161Z,17.15
2022-08-03T23:08:09.563Z,17.10
2022-08-03T23:13:13.196Z,17.07
2022-08-03T23:18:16.355Z,17.03
2022-08-03T23:23:20.760Z,17.00
2022-08-03T23:28:24.884Z,16.97
2022-08-03T23:33:29.100Z,16.94
2022-08-03T23:38:35.673Z,16.92
2022-08-03T23:43:51.502Z,16.93
2022-08-03T23:48:56.488Z,16.93
2022-08-03T23:54:31.103Z,16.95
2022-08-03T23:59:42.455Z,16.94
